METAR Data
IDs: Format: Raw Decoded Include TAF

Data at: 0232 UTC 10 Dec 2022

METAR for:KFGX (Flemingsburg Arpt, KY, US)
Text:KFGX 100215Z AUTO 30005KT 1/4SM FG OVC003 09/09 A3013 RMK AO2 T00920091
Temperature: 9.2°C ( 49°F)
Dewpoint: 9.1°C ( 48°F) [RH = 99%]
Pressure (altimeter):30.13 inches Hg (1020.4 mb)
Winds:from the WNW (300 degrees) at 6 MPH (5 knots; 2.6 m/s)
Visibility: 0.25 sm ( 0.40 km)
Ceiling:300 feet AGL
Clouds: overcast cloud deck at 300 feet AGL
Weather:FG (fog)
QC Flag:automated observation with no human augmentation